createdAt,value
2018-04-30T00:00:00.976Z,65.46
2018-04-30T00:00:41.474Z,65.08
2018-04-30T00:01:22.029Z,65.66
2018-04-30T00:02:02.597Z,65.46
2018-04-30T00:02:43.106Z,65.84
2018-04-30T00:03:23.624Z,65.66
2018-04-30T00:04:04.120Z,65.46
2018-04-30T00:04:44.669Z,65.56
2018-04-30T00:05:25.155Z,65.27
2018-04-30T00:06:05.674Z,65.37
2018-04-30T00:06:46.199Z,65.46
2018-04-30T00:09:04.584Z,65.46
2018-04-30T00:09:45.113Z,65.75
2018-04-30T00:10:25.643Z,64.69
2018-04-30T00:11:06.183Z,65.17
2018-04-30T00:11:46.679Z,65.17
2018-04-30T00:12:27.203Z,64.79
2018-04-30T00:13:07.713Z,64.69
2018-04-30T00:13:48.231Z,65.17
2018-04-30T00:14:28.738Z,64.79
2018-04-30T00:15:09.274Z,64.89
2018-04-30T00:15:49.783Z,65.84
2018-04-30T00:16:30.301Z,65.17
2018-04-30T00:17:10.847Z,65.08
2018-04-30T00:17:51.374Z,64.6
2018-04-30T00:18:31.901Z,64.69
2018-04-30T00:19:12.411Z,64.6
2018-04-30T00:19:52.952Z,64.4
2018-04-30T00:20:33.484Z,65.37
2018-04-30T00:21:14.022Z,64.4
2018-04-30T00:21:54.535Z,64.4
2018-04-30T00:22:35.057Z,64.4
2018-04-30T00:23:15.582Z,64.5
2018-04-30T00:23:56.107Z,64.4
2018-04-30T00:24:36.634Z,64.6
2018-04-30T00:25:17.169Z,64.34
2018-04-30T00:25:57.705Z,64.15
2018-04-30T00:26:38.213Z,63.73
2018-04-30T00:27:18.722Z,63.73
2018-04-30T00:27:59.231Z,64.15
2018-04-30T00:28:39.803Z,63.64
2018-04-30T00:29:20.290Z,63.64
2018-04-30T00:30:00.815Z,63.92
2018-04-30T00:30:41.329Z,64.02
2018-04-30T00:31:21.830Z,62.96
2018-04-30T00:32:02.357Z,62.87
2018-04-30T00:32:42.872Z,62.87
2018-04-30T00:33:23.429Z,63.06
2018-04-30T00:34:03.930Z,62.96
2018-04-30T00:34:44.468Z,62.68
2018-04-30T00:35:24.966Z,62.77
2018-04-30T00:36:05.503Z,63.25
2018-04-30T00:36:46.035Z,63.06
2018-04-30T00:37:26.567Z,62.58
2018-04-30T00:38:07.089Z,62.19
2018-04-30T00:38:47.590Z,62.68
2018-04-30T00:39:28.117Z,61.81
2018-04-30T00:40:08.689Z,61.71
2018-04-30T00:40:49.200Z,62.19
2018-04-30T00:41:29.730Z,62.07
2018-04-30T00:42:10.253Z,61.61
2018-04-30T00:42:50.739Z,62.16
2018-04-30T00:43:31.242Z,61.97
2018-04-30T00:44:11.762Z,61.71
2018-04-30T00:44:52.282Z,61.71
2018-04-30T00:45:32.800Z,61.61
2018-04-30T00:46:13.304Z,61.52
2018-04-30T00:46:53.822Z,61.14
2018-04-30T00:47:34.330Z,61.52
2018-04-30T00:48:14.849Z,61.52
2018-04-30T00:48:55.392Z,61.01
2018-04-30T00:49:35.896Z,61.2
2018-04-30T00:50:16.399Z,61.33
2018-04-30T00:50:56.932Z,60.94
2018-04-30T00:51:37.444Z,61.11
2018-04-30T00:52:17.947Z,61.04
2018-04-30T00:52:58.490Z,61.3
2018-04-30T00:53:38.990Z,61.3
2018-04-30T00:54:19.514Z,61.01
2018-04-30T00:55:00.037Z,61.11
2018-04-30T00:55:40.533Z,61.33
2018-04-30T00:56:21.044Z,61.52
2018-04-30T00:57:01.563Z,61.52
2018-04-30T00:57:42.071Z,61.71
2018-04-30T00:58:22.590Z,61.23
2018-04-30T00:59:03.104Z,61.71
2018-04-30T00:59:43.607Z,61.71
2018-04-30T01:00:24.136Z,61.71
2018-04-30T01:01:04.647Z,61.33
2018-04-30T01:01:45.137Z,61.61
2018-04-30T01:02:25.661Z,61.61
2018-04-30T01:03:06.172Z,61.49
2018-04-30T01:03:46.682Z,62.1
2018-04-30T01:04:27.202Z,62.16
2018-04-30T01:05:07.728Z,61.91
2018-04-30T01:05:48.256Z,61.91
2018-04-30T01:06:28.780Z,61.87
2018-04-30T01:07:09.288Z,61.78
2018-04-30T01:07:49.793Z,61.61
2018-04-30T01:08:30.318Z,61.87
2018-04-30T01:09:10.831Z,61.91
2018-04-30T01:09:51.366Z,62.07
2018-04-30T01:10:31.871Z,62.16
2018-04-30T01:11:12.531Z,62.19
2018-04-30T01:11:53.043Z,62.29
2018-04-30T01:12:33.574Z,62.35
2018-04-30T01:13:14.081Z,62.84
2018-04-30T01:13:54.595Z,62.55
2018-04-30T01:14:35.102Z,62.64
2018-04-30T01:15:15.625Z,62.45
2018-04-30T01:15:56.179Z,63.12
2018-04-30T01:16:36.680Z,62.45
2018-04-30T01:17:17.185Z,62.64
2018-04-30T01:17:57.713Z,62.55
2018-04-30T01:18:38.230Z,62.16
2018-04-30T01:19:18.740Z,62.64
2018-04-30T01:19:59.287Z,62.74
2018-04-30T01:20:39.771Z,62.45
2018-04-30T01:21:20.278Z,62.64
2018-04-30T01:22:00.795Z,62.74
2018-04-30T01:22:41.380Z,62.74
2018-04-30T01:23:21.919Z,62.84
2018-04-30T01:24:02.437Z,62.74
2018-04-30T01:24:42.964Z,62.74
2018-04-30T01:25:23.475Z,63.38
2018-04-30T01:26:04.006Z,62.81
2018-04-30T01:26:44.565Z,63.22
2018-04-30T01:27:25.034Z,63.02
2018-04-30T01:28:05.506Z,62.93
2018-04-30T01:28:46.022Z,63.41
2018-04-30T01:29:26.528Z,63.67
2018-04-30T01:30:07.025Z,64.28
2018-04-30T01:30:47.536Z,64.18
2018-04-30T01:31:28.042Z,64.25
2018-04-30T01:32:08.541Z,64.63
2018-04-30T01:32:49.084Z,64.72
2018-04-30T01:33:29.574Z,65.01
2018-04-30T01:34:10.092Z,65.01
2018-04-30T01:34:50.607Z,65.2
2018-04-30T01:35:31.098Z,64.92
2018-04-30T01:36:11.602Z,65.11
2018-04-30T01:36:52.153Z,64.82
2018-04-30T01:37:32.668Z,65.01
2018-04-30T01:38:13.198Z,65.2
2018-04-30T01:38:53.719Z,65.01
2018-04-30T01:39:34.238Z,65.2
2018-04-30T01:40:14.781Z,65.01
2018-04-30T01:40:55.277Z,65.01
2018-04-30T01:41:35.798Z,65.01
2018-04-30T01:42:16.315Z,64.34
2018-04-30T01:42:56.822Z,64.63
2018-04-30T01:43:37.353Z,64.72
2018-04-30T01:44:17.861Z,64.82
2018-04-30T01:44:58.392Z,65.01
2018-04-30T01:45:38.918Z,64.34
2018-04-30T01:46:19.423Z,64.43
2018-04-30T01:46:59.956Z,64.25
2018-04-30T01:47:40.470Z,64.15
2018-04-30T01:48:20.988Z,63.76
2018-04-30T01:49:01.499Z,63.38
2018-04-30T01:49:42.023Z,63.19
2018-04-30T01:50:22.539Z,63.09
2018-04-30T01:51:03.057Z,62.52
2018-04-30T01:51:43.573Z,63.09
2018-04-30T01:52:24.075Z,62.71
2018-04-30T01:53:04.580Z,62.71
2018-04-30T01:53:45.100Z,62.61
2018-04-30T01:54:25.619Z,62.71
2018-04-30T01:55:06.146Z,62.99
2018-04-30T01:55:46.662Z,62.77
2018-04-30T01:56:27.181Z,62.68
2018-04-30T01:57:07.692Z,62.87
2018-04-30T01:57:48.230Z,62.77
2018-04-30T01:58:28.760Z,62.96
2018-04-30T01:59:09.277Z,63.35
2018-04-30T01:59:49.800Z,62.87
2018-04-30T02:00:30.308Z,63.06
2018-04-30T02:01:10.845Z,63.06
2018-04-30T02:01:51.374Z,62.96
2018-04-30T02:02:31.891Z,62.96
2018-04-30T02:03:12.399Z,63.35
2018-04-30T02:03:52.929Z,63.92
2018-04-30T02:04:33.449Z,64.02
2018-04-30T02:05:13.968Z,64.22
2018-04-30T02:05:54.489Z,64.12
2018-04-30T02:06:35.018Z,64.12
2018-04-30T02:07:15.546Z,64.22
2018-04-30T02:07:56.070Z,64.85
2018-04-30T02:08:36.577Z,64.76
2018-04-30T02:09:17.104Z,64.79
2018-04-30T02:09:57.627Z,65.14
2018-04-30T02:10:38.142Z,65.17
2018-04-30T02:11:18.665Z,65.65
2018-04-30T02:11:59.195Z,65.52
2018-04-30T02:12:39.707Z,66.19
2018-04-30T02:13:20.209Z,66.67
2018-04-30T02:14:00.741Z,66.33
2018-04-30T02:14:41.254Z,66.9
2018-04-30T02:15:21.760Z,67.09
2018-04-30T02:16:02.275Z,67.76
2018-04-30T02:16:42.801Z,68.53
2018-04-30T02:17:23.320Z,68.24
2018-04-30T02:18:03.841Z,68.53
2018-04-30T02:18:44.925Z,68.05
2018-04-30T02:19:25.445Z,68.12
2018-04-30T02:20:05.958Z,68.3
2018-04-30T02:20:46.471Z,69.26
2018-04-30T02:21:26.992Z,69.46
2018-04-30T02:22:07.512Z,69.46
2018-04-30T02:22:48.028Z,68.79
2018-04-30T02:23:28.549Z,68.59
2018-04-30T02:24:09.063Z,69.65
2018-04-30T02:24:49.595Z,69.46
2018-04-30T02:25:30.119Z,69.26
2018-04-30T02:26:10.643Z,69.65
2018-04-30T02:26:51.157Z,70.13
2018-04-30T02:27:31.673Z,69.65
2018-04-30T02:28:12.186Z,69.93
2018-04-30T02:28:52.700Z,69.65
2018-04-30T02:29:33.225Z,69.65
2018-04-30T02:30:13.743Z,69.46
2018-04-30T02:30:54.255Z,69.74
2018-04-30T02:31:34.776Z,69.93
2018-04-30T02:32:15.296Z,70.32
2018-04-30T02:32:55.811Z,70.13
2018-04-30T02:33:36.351Z,70.51
2018-04-30T02:34:16.873Z,70.99
2018-04-30T02:34:57.374Z,70.7
2018-04-30T02:35:37.909Z,70.32
2018-04-30T02:36:18.431Z,70.23
2018-04-30T02:36:58.965Z,70.13
2018-04-30T02:37:39.484Z,70.03
2018-04-30T02:38:20.006Z,70.51
2018-04-30T02:39:00.527Z,70.7
2018-04-30T02:39:41.037Z,70.32
2018-04-30T02:40:21.564Z,70.99
2018-04-30T02:41:02.076Z,71.09
2018-04-30T02:41:42.599Z,71.19
2018-04-30T02:42:23.126Z,70.9
2018-04-30T02:43:03.646Z,71.09
2018-04-30T02:43:44.167Z,70.8
2018-04-30T02:44:24.703Z,70.99
2018-04-30T02:45:05.229Z,70.9
2018-04-30T02:45:45.739Z,70.8
2018-04-30T02:46:26.256Z,70.51
2018-04-30T02:47:06.772Z,70.51
2018-04-30T02:47:47.289Z,71.47
2018-04-30T02:48:27.820Z,71.19
2018-04-30T02:49:08.333Z,71.09
2018-04-30T02:49:48.843Z,70.51
2018-04-30T02:50:29.398Z,71.09
2018-04-30T02:51:09.917Z,71.66
2018-04-30T02:51:50.446Z,71.47
2018-04-30T02:52:30.961Z,71.57
2018-04-30T02:53:11.487Z,71.37
2018-04-30T02:53:52.004Z,70.99
2018-04-30T02:54:32.519Z,71.37
2018-04-30T02:55:13.035Z,71.28
2018-04-30T02:55:53.552Z,71.66
2018-04-30T02:56:34.072Z,71.95
2018-04-30T02:57:14.589Z,71.28
2018-04-30T02:57:55.099Z,71.19
2018-04-30T02:58:35.626Z,71.57
2018-04-30T02:59:16.139Z,71.47
2018-04-30T02:59:56.651Z,71.37
2018-04-30T03:00:37.168Z,71.37
2018-04-30T03:01:17.691Z,71.28
2018-04-30T03:01:58.204Z,70.61
2018-04-30T03:02:38.729Z,71.19
2018-04-30T03:03:19.245Z,71.37
2018-04-30T03:03:59.761Z,71.57
2018-04-30T03:04:40.273Z,71.76
2018-04-30T03:05:20.803Z,71.66
2018-04-30T03:06:01.331Z,71.57
2018-04-30T03:06:41.846Z,71.19
2018-04-30T03:07:22.370Z,71.37
2018-04-30T03:08:02.890Z,70.51
2018-04-30T03:08:43.405Z,70.9
2018-04-30T03:09:23.914Z,70.9
2018-04-30T03:10:04.440Z,70.99
2018-04-30T03:10:44.958Z,70.13
2018-04-30T03:11:25.485Z,70.7
2018-04-30T03:12:06.003Z,70.7
2018-04-30T03:12:46.511Z,70.96
2018-04-30T03:13:27.051Z,70.61
2018-04-30T03:14:07.565Z,70.67
2018-04-30T03:14:48.078Z,70.51
2018-04-30T03:15:28.597Z,70.7
2018-04-30T03:16:09.114Z,71.37
2018-04-30T03:16:49.637Z,71.19
2018-04-30T03:17:30.151Z,70.51
2018-04-30T03:18:10.682Z,71.05
2018-04-30T03:18:51.202Z,70.67
2018-04-30T03:19:31.718Z,70.96
2018-04-30T03:20:12.242Z,71.44
2018-04-30T03:20:52.766Z,71.15
2018-04-30T03:21:33.276Z,71.34
2018-04-30T03:22:13.799Z,70.67
2018-04-30T03:22:54.309Z,71.34
2018-04-30T03:23:34.825Z,71.34
2018-04-30T03:24:15.353Z,71.44
2018-04-30T03:24:55.852Z,71.72
2018-04-30T03:25:36.368Z,71.44
2018-04-30T03:26:16.874Z,71.25
2018-04-30T03:26:57.393Z,71.63
2018-04-30T03:27:37.925Z,71.05
2018-04-30T03:28:18.445Z,70.86
2018-04-30T03:28:58.967Z,71.05
2018-04-30T03:29:39.462Z,71.63
2018-04-30T03:30:20.081Z,71.53
2018-04-30T03:31:00.596Z,71.15
2018-04-30T03:31:41.133Z,70.67
2018-04-30T03:32:21.648Z,71.63
2018-04-30T03:33:02.167Z,71.34
2018-04-30T03:33:42.690Z,70.86
2018-04-30T03:34:23.231Z,70.86
2018-04-30T03:35:03.724Z,70.67
2018-04-30T03:35:44.273Z,70.76
2018-04-30T03:36:24.814Z,70.96
2018-04-30T03:37:05.311Z,70.86
2018-04-30T03:37:45.827Z,70.83
2018-04-30T03:38:26.327Z,71.31
2018-04-30T03:39:06.934Z,70.76
2018-04-30T03:39:47.528Z,70.86
2018-04-30T03:40:28.018Z,70.57
2018-04-30T03:41:08.517Z,70.76
2018-04-30T03:41:49.065Z,70.19
2018-04-30T03:42:29.570Z,70.09
2018-04-30T03:43:10.076Z,70.83
2018-04-30T03:43:50.585Z,70.73
2018-04-30T03:44:31.108Z,70.76
2018-04-30T03:45:11.604Z,70.38
2018-04-30T03:45:52.126Z,69.62
2018-04-30T03:46:32.629Z,69.42
2018-04-30T03:47:13.149Z,69.48
2018-04-30T03:47:53.660Z,69.48
2018-04-30T03:48:34.175Z,69.13
2018-04-30T03:49:14.729Z,68.95
2018-04-30T03:49:55.252Z,69.23
2018-04-30T03:50:35.787Z,68.85
2018-04-30T03:51:16.311Z,69.52
2018-04-30T03:51:56.832Z,68.75
2018-04-30T03:52:37.332Z,68.95
2018-04-30T03:53:17.857Z,69.81
2018-04-30T03:53:58.355Z,69.23
2018-04-30T03:54:38.887Z,69.58
2018-04-30T03:55:19.408Z,69.39
2018-04-30T03:55:59.929Z,69.52
2018-04-30T03:56:40.469Z,69.42
2018-04-30T03:57:20.942Z,69.13
2018-04-30T03:58:01.459Z,68.75
2018-04-30T03:58:41.987Z,68.95
2018-04-30T03:59:22.507Z,68.18
2018-04-30T04:00:03.027Z,68.18
2018-04-30T04:00:43.539Z,67.69
2018-04-30T04:01:24.054Z,67.99
2018-04-30T04:02:04.559Z,67.69
2018-04-30T04:02:45.075Z,67.69
2018-04-30T04:03:25.603Z,67.79
2018-04-30T04:04:06.131Z,67.89
2018-04-30T04:04:46.675Z,67.69
2018-04-30T04:05:27.200Z,66.86
2018-04-30T04:06:07.691Z,66.83
2018-04-30T04:06:48.189Z,66.49
2018-04-30T04:07:28.780Z,66.26
2018-04-30T04:08:09.276Z,66.55
2018-04-30T04:08:49.795Z,66.45
2018-04-30T04:09:30.303Z,66.35
2018-04-30T04:10:10.817Z,66.35
2018-04-30T04:10:51.547Z,66.45
2018-04-30T04:11:32.026Z,66.45
2018-04-30T04:12:12.582Z,66.26
2018-04-30T04:12:53.086Z,66.35
2018-04-30T04:13:33.613Z,66.16
2018-04-30T04:14:14.121Z,66.16
2018-04-30T04:14:54.626Z,65.39
2018-04-30T04:15:35.180Z,65.49
2018-04-30T04:16:15.675Z,65.26
2018-04-30T04:16:56.186Z,66.06
2018-04-30T04:17:36.708Z,66.06
2018-04-30T04:18:17.239Z,65.49
2018-04-30T04:18:57.786Z,65.2
2018-04-30T04:19:38.299Z,65.3
2018-04-30T04:20:18.831Z,65.2
2018-04-30T04:20:59.333Z,65.59
2018-04-30T04:21:39.851Z,65.59
2018-04-30T04:22:20.380Z,64.82
2018-04-30T04:23:00.896Z,64.82
2018-04-30T04:23:41.420Z,65.2
2018-04-30T04:24:21.931Z,65.3
2018-04-30T04:25:02.440Z,65.3
2018-04-30T04:25:42.961Z,65.2
2018-04-30T04:26:23.601Z,65.39
2018-04-30T04:27:04.115Z,65.59
2018-04-30T04:27:44.644Z,65.3
2018-04-30T04:28:25.121Z,65.49
2018-04-30T04:29:05.645Z,65.2
2018-04-30T04:29:46.163Z,65.2
2018-04-30T04:30:26.678Z,65.3
2018-04-30T04:31:07.199Z,65.11
2018-04-30T04:31:47.716Z,65.49
2018-04-30T04:32:28.239Z,65.36
2018-04-30T04:33:08.780Z,65.17
2018-04-30T04:33:49.305Z,65.39
2018-04-30T04:34:29.811Z,65.17
2018-04-30T04:35:10.333Z,66.06
2018-04-30T04:35:50.850Z,65.26
2018-04-30T04:36:31.364Z,65.59
2018-04-30T04:37:11.862Z,65.2
2018-04-30T04:37:52.380Z,65.2
2018-04-30T04:38:32.901Z,65.49
2018-04-30T04:39:13.420Z,65.3
2018-04-30T04:39:53.937Z,65.46
2018-04-30T04:40:34.463Z,65.17
2018-04-30T04:41:14.981Z,66.13
2018-04-30T04:41:55.500Z,66.03
2018-04-30T04:42:36.025Z,66.03
2018-04-30T04:43:16.540Z,66.03
2018-04-30T04:43:57.061Z,65.75
2018-04-30T04:44:37.567Z,66.03
2018-04-30T04:45:18.097Z,65.68
2018-04-30T04:45:58.608Z,66.16
2018-04-30T04:46:39.141Z,66.16
2018-04-30T04:47:19.672Z,66.16
2018-04-30T04:48:00.185Z,66.22
2018-04-30T04:48:40.701Z,65.84
2018-04-30T04:49:21.222Z,65.94
2018-04-30T04:50:01.729Z,66.03
2018-04-30T04:50:42.252Z,65.84
2018-04-30T04:51:22.765Z,65.65
2018-04-30T04:52:03.286Z,66.13
2018-04-30T04:52:43.796Z,65.84
2018-04-30T04:53:24.314Z,66.22
2018-04-30T04:54:04.837Z,66.22
2018-04-30T04:54:45.356Z,65.75
2018-04-30T04:55:25.873Z,65.65
2018-04-30T04:56:06.392Z,65.65
2018-04-30T04:56:46.906Z,65.94
2018-04-30T04:57:27.441Z,66.13
2018-04-30T04:58:07.955Z,65.94
2018-04-30T04:58:48.478Z,66.03
2018-04-30T04:59:28.990Z,65.75
2018-04-30T05:00:09.517Z,65.97
2018-04-30T05:00:50.030Z,65.3
2018-04-30T05:01:30.541Z,65.59
2018-04-30T05:02:11.062Z,64.92
2018-04-30T05:02:51.586Z,65.39
2018-04-30T05:03:32.109Z,65.01
2018-04-30T05:04:12.631Z,64.72
2018-04-30T05:04:53.145Z,65.01
2018-04-30T05:05:33.652Z,65.46
2018-04-30T05:06:14.176Z,65.11
2018-04-30T05:06:54.701Z,65.3
2018-04-30T05:07:35.229Z,65.39
2018-04-30T05:08:15.753Z,65.11
2018-04-30T05:08:56.269Z,65.3
2018-04-30T05:09:36.787Z,68.75
2018-04-30T05:10:17.297Z,73.93
2018-04-30T05:10:57.840Z,79.49
2018-04-30T05:11:38.333Z,78.53
2018-04-30T05:12:18.850Z,80.16
2018-04-30T05:12:59.372Z,81.98
2018-04-30T05:13:39.896Z,79.59
2018-04-30T05:14:20.414Z,82.18
2018-04-30T05:15:00.953Z,72.97
2018-04-30T05:15:41.480Z,76.65
2018-04-30T05:16:22.016Z,74.69
2018-04-30T05:18:16.861Z,78.09
2018-04-30T05:18:57.369Z,77.42
2018-04-30T05:19:37.878Z,74.26
2018-04-30T05:20:18.400Z,79.63
2018-04-30T05:20:58.932Z,83.37
2018-04-30T05:21:39.415Z,77.33
2018-04-30T05:22:19.937Z,72.24
2018-04-30T05:23:00.500Z,78.28
2018-04-30T05:23:41.015Z,79.44
2018-04-30T05:24:21.530Z,82.03
2018-04-30T05:25:02.063Z,84.04
2018-04-30T05:25:42.570Z,77.13
2018-04-30T05:26:23.079Z,79.44
2018-04-30T05:27:03.597Z,74.44
2018-04-30T05:27:44.115Z,73.97
2018-04-30T05:28:24.633Z,80.58
2018-04-30T05:29:05.149Z,78.38
2018-04-30T05:29:45.683Z,76.65
2018-04-30T05:30:26.203Z,75.21
2018-04-30T05:31:06.712Z,77.13
2018-04-30T05:31:47.232Z,75.79
2018-04-30T05:32:27.758Z,75.5
2018-04-30T05:33:08.266Z,76.27
2018-04-30T05:33:48.802Z,76.75
2018-04-30T05:34:29.281Z,77.23
2018-04-30T05:35:09.804Z,74.83
2018-04-30T05:35:50.327Z,73.97
2018-04-30T05:36:30.843Z,74.26
2018-04-30T05:37:11.360Z,75.89
2018-04-30T05:37:51.875Z,73.1
2018-04-30T05:38:32.389Z,74.06
2018-04-30T05:39:12.899Z,72.91
2018-04-30T05:39:53.422Z,70.7
2018-04-30T05:40:33.932Z,71.95
2018-04-30T05:41:14.443Z,72.24
2018-04-30T05:41:54.959Z,72.53
2018-04-30T05:42:35.474Z,69.56
2018-04-30T05:43:15.989Z,71.19
2018-04-30T05:43:56.502Z,72.81
2018-04-30T05:44:37.012Z,73.3
2018-04-30T05:45:17.555Z,74.44
2018-04-30T05:45:58.068Z,72.63
2018-04-30T05:46:38.595Z,71.76
2018-04-30T05:47:19.113Z,73.87
2018-04-30T05:47:59.758Z,72.14
2018-04-30T05:48:40.206Z,71.86
2018-04-30T05:49:20.662Z,71.47
2018-04-30T05:50:01.185Z,70.32
2018-04-30T05:50:41.699Z,74.16
2018-04-30T05:51:22.213Z,72.81
2018-04-30T05:52:02.735Z,73.14
2018-04-30T05:52:43.247Z,71.76
2018-04-30T05:53:23.790Z,72.43
2018-04-30T05:54:04.306Z,71.37
2018-04-30T05:54:44.833Z,71.41
2018-04-30T05:55:25.395Z,73.72
2018-04-30T05:56:05.909Z,72.95
2018-04-30T05:56:46.430Z,78.42
2018-04-30T05:57:26.940Z,79.09
2018-04-30T05:58:07.474Z,71.8
2018-04-30T05:58:47.994Z,72.75
2018-04-30T05:59:28.514Z,69.3
2018-04-30T06:00:09.035Z,76.69
2018-04-30T06:00:49.561Z,76.25
2018-04-30T06:01:30.077Z,73.85
2018-04-30T06:02:10.587Z,78.65
2018-04-30T06:02:51.114Z,79.61
2018-04-30T06:03:31.657Z,83.69
2018-04-30T06:04:12.197Z,82.2
2018-04-30T06:04:52.719Z,76.15
2018-04-30T06:05:33.238Z,72.99
2018-04-30T06:06:13.751Z,82.97
2018-04-30T06:06:54.289Z,82.78
2018-04-30T06:07:34.799Z,86.14
2018-04-30T06:08:15.303Z,78.45
2018-04-30T06:08:55.821Z,75.38
2018-04-30T06:09:36.338Z,79.61
2018-04-30T06:10:16.858Z,77.4
2018-04-30T06:10:57.376Z,83.45
2018-04-30T06:11:37.902Z,78.65
2018-04-30T06:12:18.423Z,76.15
2018-04-30T06:12:58.934Z,81.72
2018-04-30T06:13:39.447Z,83.16
2018-04-30T06:14:19.974Z,86.24
2018-04-30T06:15:00.478Z,84.41
2018-04-30T06:15:40.993Z,84.51
2018-04-30T06:16:21.567Z,80.66
2018-04-30T06:17:02.061Z,82.2
2018-04-30T06:17:42.577Z,87.96
2018-04-30T06:18:23.093Z,83.54
2018-04-30T06:19:03.609Z,81.05
2018-04-30T06:19:44.121Z,80.61
2018-04-30T06:20:24.637Z,82.15
2018-04-30T06:21:05.156Z,71.06
2018-04-30T06:21:45.702Z,75.96
2018-04-30T06:22:26.237Z,73.46
2018-04-30T06:23:06.762Z,73.46
2018-04-30T06:23:47.278Z,70.58
2018-04-30T06:24:27.801Z,71.83
2018-04-30T06:25:08.318Z,70.78
2018-04-30T06:25:48.842Z,71.73
2018-04-30T06:26:29.384Z,71.45
2018-04-30T06:27:09.926Z,72.41
2018-04-30T06:27:50.425Z,70.58
2018-04-30T06:28:30.961Z,70.78
2018-04-30T06:29:11.501Z,75.1
2018-04-30T06:29:52.009Z,75
2018-04-30T06:30:32.527Z,74.13
2018-04-30T06:31:13.016Z,74.43
2018-04-30T06:31:53.543Z,75.67
2018-04-30T06:32:34.078Z,76.92
2018-04-30T06:33:14.601Z,76.25
2018-04-30T06:33:55.130Z,74.52
2018-04-30T06:34:35.637Z,74.23
2018-04-30T06:35:16.172Z,70.87
2018-04-30T06:35:56.695Z,73.66
2018-04-30T06:36:37.205Z,72.34
2018-04-30T06:37:17.742Z,71.29
2018-04-30T06:37:58.283Z,72.64
2018-04-30T06:38:38.803Z,73.21
2018-04-30T06:39:19.326Z,74.75
2018-04-30T06:39:59.843Z,74.37
2018-04-30T06:40:40.350Z,73.79
2018-04-30T06:41:20.898Z,72.54
2018-04-30T06:42:01.409Z,73.21
2018-04-30T06:42:41.920Z,77.15
2018-04-30T06:43:22.432Z,78.59
2018-04-30T06:44:02.962Z,74.62
2018-04-30T06:44:43.489Z,78.21
2018-04-30T06:45:24.020Z,81.38
2018-04-30T06:46:04.545Z,78.4
2018-04-30T06:46:45.161Z,76
2018-04-30T06:47:25.711Z,73.31
2018-04-30T06:48:06.221Z,70.81
2018-04-30T06:48:47.235Z,73.11
2018-04-30T06:49:27.247Z,69.6
2018-04-30T06:50:07.784Z,76.9
2018-04-30T06:50:48.316Z,76.65
2018-04-30T06:51:28.835Z,72.52
2018-04-30T06:52:09.358Z,73.67
2018-04-30T06:52:49.883Z,74.48
2018-04-30T06:53:30.424Z,78.23
2018-04-30T06:54:10.916Z,69.76
2018-04-30T06:54:51.470Z,79.48
2018-04-30T06:55:32.986Z,82.46
2018-04-30T06:56:13.551Z,77.08
2018-04-30T06:56:54.058Z,77.88
2018-04-30T06:57:34.588Z,72.97
2018-04-30T06:58:16.021Z,70.92
2018-04-30T06:58:56.556Z,68.6
2018-04-30T06:59:37.095Z,67.93
2018-04-30T07:00:17.626Z,77.36
2018-04-30T07:00:58.155Z,76.31
2018-04-30T07:01:38.675Z,70.82
2018-04-30T07:02:19.184Z,74.96
2018-04-30T07:02:59.683Z,74.38
2018-04-30T07:03:40.201Z,73.99
2018-04-30T07:04:20.727Z,74.09
2018-04-30T07:05:01.248Z,67.16
2018-04-30T07:05:41.778Z,67.74
2018-04-30T07:06:22.368Z,68.51
2018-04-30T07:07:02.850Z,69.38
2018-04-30T07:07:43.380Z,69.34
2018-04-30T07:08:23.923Z,70.72
2018-04-30T07:09:04.464Z,67.07
2018-04-30T07:09:44.968Z,69.34
2018-04-30T07:10:25.513Z,73.67
2018-04-30T07:11:06.009Z,75.73
2018-04-30T07:11:46.530Z,70.01
2018-04-30T07:12:27.061Z,78.67
2018-04-30T07:13:07.589Z,76.59
2018-04-30T07:13:48.122Z,77.56
2018-04-30T07:14:28.639Z,76.59
2018-04-30T07:15:09.166Z,74.29
2018-04-30T07:15:49.678Z,71.01
2018-04-30T07:16:30.194Z,71.53
2018-04-30T07:17:10.714Z,72.74
2018-04-30T07:17:51.231Z,72.55
2018-04-30T07:18:31.749Z,71.11
2018-04-30T07:19:12.263Z,72.32
2018-04-30T07:19:52.801Z,68.76
2018-04-30T07:20:33.334Z,67.03
2018-04-30T07:21:13.887Z,68.76
2018-04-30T07:21:54.428Z,73.71
2018-04-30T07:22:34.953Z,71.36
2018-04-30T07:23:15.458Z,65.4
2018-04-30T07:23:55.980Z,71.46
2018-04-30T07:24:36.515Z,69.92
2018-04-30T07:25:17.035Z,66.33
2018-04-30T07:25:57.556Z,68.67
2018-04-30T07:26:38.074Z,71.17
2018-04-30T07:27:18.621Z,68.38
2018-04-30T07:27:59.138Z,73
2018-04-30T07:28:39.660Z,71.46
2018-04-30T07:29:20.174Z,69.44
2018-04-30T07:30:00.693Z,67.03
2018-04-30T07:30:41.209Z,71.84
2018-04-30T07:31:21.739Z,68.38
2018-04-30T07:32:02.254Z,70.59
2018-04-30T07:32:42.790Z,70.98
2018-04-30T07:33:23.329Z,72.32
2018-04-30T07:34:03.867Z,68.09
2018-04-30T07:34:44.386Z,70.5
2018-04-30T07:35:24.900Z,67.9
2018-04-30T07:36:05.426Z,76.98
2018-04-30T07:36:45.949Z,78.9
2018-04-30T07:37:26.484Z,81.12
2018-04-30T07:38:07.105Z,79.96
2018-04-30T07:38:47.657Z,77.4
2018-04-30T07:39:28.183Z,69.47
2018-04-30T07:40:08.708Z,71.81
2018-04-30T07:40:49.232Z,77.78
2018-04-30T07:41:29.772Z,76.63
2018-04-30T07:42:10.290Z,79.81
2018-04-30T07:42:50.809Z,78.11
2018-04-30T07:43:31.336Z,79.66
2018-04-30T07:44:11.851Z,79.69
2018-04-30T07:44:52.352Z,69.64
2018-04-30T07:45:32.895Z,75.61
2018-04-30T07:46:13.415Z,66.71
2018-04-30T07:46:54.052Z,67.87
2018-04-30T07:47:34.591Z,71.66
2018-04-30T07:48:15.115Z,63.64
2018-04-30T07:48:55.628Z,73.74
2018-04-30T07:49:36.156Z,70.76
2018-04-30T07:50:16.679Z,68.22
2018-04-30T07:50:57.225Z,70.05
2018-04-30T07:51:37.718Z,69.76
2018-04-30T07:52:18.233Z,62.61
2018-04-30T07:52:58.731Z,71.01
2018-04-30T07:53:39.256Z,75.63
2018-04-30T07:54:19.771Z,76.5
2018-04-30T07:55:00.291Z,81.88
2018-04-30T07:55:40.812Z,84.1
2018-04-30T07:56:21.339Z,78.03
2018-04-30T07:57:01.884Z,79.58
2018-04-30T07:57:42.588Z,83.62
2018-04-30T07:58:23.118Z,83.42
2018-04-30T07:59:03.642Z,83.14
2018-04-30T07:59:44.200Z,82.27
2018-04-30T08:00:24.710Z,83.42
2018-04-30T08:01:05.216Z,85.06
2018-04-30T08:01:45.735Z,78.42
2018-04-30T08:02:26.249Z,80.15
2018-04-30T08:03:06.778Z,70.68
2018-04-30T08:03:47.287Z,67.93
2018-04-30T08:04:27.801Z,78.33
2018-04-30T08:05:08.330Z,77.17
2018-04-30T08:05:48.854Z,74.34
2018-04-30T08:06:29.363Z,69.15
2018-04-30T08:07:09.938Z,69.82
2018-04-30T08:07:50.475Z,76.84
2018-04-30T08:08:31.029Z,72.8
2018-04-30T08:09:11.648Z,68.76
2018-04-30T08:09:52.153Z,71.08
2018-04-30T08:10:32.708Z,75.49
2018-04-30T08:11:13.379Z,71.52
2018-04-30T08:11:53.899Z,66.91
2018-04-30T08:12:34.452Z,70.56
2018-04-30T08:13:14.930Z,72.32
2018-04-30T08:13:55.493Z,73.15
2018-04-30T08:14:36.086Z,70.98
2018-04-30T08:15:16.605Z,73.54
2018-04-30T08:15:57.115Z,74.25
2018-04-30T08:16:37.637Z,75.59
2018-04-30T08:17:18.142Z,73.25
2018-04-30T08:17:58.790Z,72.32
2018-04-30T08:18:39.315Z,71.84
2018-04-30T08:19:19.827Z,69.53
2018-04-30T08:20:00.342Z,71.17
2018-04-30T08:20:41.000Z,74.05
2018-04-30T08:21:21.428Z,73.47
2018-04-30T08:22:01.957Z,72.52
2018-04-30T08:22:42.494Z,66.81
2018-04-30T08:23:23.009Z,66.27
2018-04-30T08:24:03.536Z,69.63
2018-04-30T08:24:44.059Z,74.63
2018-04-30T08:25:24.592Z,76.56
2018-04-30T08:26:05.108Z,72.42
2018-04-30T08:26:45.733Z,74.63
2018-04-30T08:27:26.182Z,72.52
2018-04-30T08:28:06.705Z,77.42
2018-04-30T08:28:47.222Z,79.44
2018-04-30T08:29:27.745Z,78.86
2018-04-30T08:30:08.283Z,74.44
2018-04-30T08:30:48.799Z,73.19
2018-04-30T08:31:29.336Z,79.82
2018-04-30T08:32:09.844Z,73.19
2018-04-30T08:32:50.376Z,72.03
2018-04-30T08:33:30.930Z,71.65
2018-04-30T08:34:11.459Z,68.67
2018-04-30T08:34:51.961Z,63.95
2018-04-30T08:35:32.512Z,66.17
2018-04-30T08:36:13.054Z,68.38
2018-04-30T08:36:53.602Z,66.55
2018-04-30T08:37:34.152Z,76.01
2018-04-30T08:38:14.730Z,72.74
2018-04-30T08:38:55.257Z,63.02
2018-04-30T08:39:35.827Z,72.74
2018-04-30T08:40:16.363Z,76.59
2018-04-30T08:40:56.939Z,76.31
2018-04-30T08:41:37.466Z,75.34
2018-04-30T08:42:18.034Z,73.42
2018-04-30T08:42:58.528Z,74.71
2018-04-30T08:43:39.050Z,75.09
2018-04-30T08:44:19.575Z,75.76
2018-04-30T08:45:00.169Z,70.09
2018-04-30T08:45:40.661Z,65.66
2018-04-30T08:46:21.162Z,68.64